Terminal Aerodrome Forecast
Issued by NWS Tampa Bay Area, FL

Home | Current Version | Previous Version | Text Only | Print | Product List | Glossary On
Versions: 1 2 3 4 5 6 7 8 9 10 11 12 13 14 15
000
FTUS42 KTBW 240535
TAFFMY
TAF
KFMY 240535Z 2406/2506 30006KT 3SM TSRA BKN030CB
     FM240630 VRB04KT P6SM VCTS BKN030CB
     FM240800 VRB03KT P6SM SCT020 SCT250
     FM241400 15005KT P6SM FEW025 BKN250
     FM241800 23007KT P6SM VCTS SCT030CB SCT100 BKN250
     FM250100 VRB03KT P6SM SCT020 BKN040=

USA.gov is the U.S. government's official web portal to all federal, state and local government web resources and services.